sensor_id;sensor_type;location;lat;lon;timestamp;pressure;altitude;pressure_sealevel;temperature;humidity
11041;BME280;5573;49.592;8.662;2022-07-23T00:00:12;99711.84;;;21.34;100.00
11041;BME280;5573;49.592;8.662;2022-07-23T00:03:00;99715.09;;;21.32;100.00
11041;BME280;5573;49.592;8.662;2022-07-23T00:05:48;99715.50;;;21.44;100.00
11041;BME280;5573;49.592;8.662;2022-07-23T00:08:36;99717.09;;;21.54;100.00
11041;BME280;5573;49.592;8.662;2022-07-23T00:11:24;99727.75;;;21.68;100.00
11041;BME280;5573;49.592;8.662;2022-07-23T00:14:12;99737.13;;;21.84;100.00
11041;BME280;5573;49.592;8.662;2022-07-23T00:17:02;99751.81;;;21.97;100.00
11041;BME280;5573;49.592;8.662;2022-07-23T00:19:50;99749.78;;;21.98;100.00
11041;BME280;5573;49.592;8.662;2022-07-23T00:22:45;99756.16;;;21.98;100.00
11041;BME280;5573;49.592;8.662;2022-07-23T00:25:33;99772.06;;;22.01;100.00
11041;BME280;5573;49.592;8.662;2022-07-23T00:28:22;99757.06;;;21.86;100.00
11041;BME280;5573;49.592;8.662;2022-07-23T00:31:10;99750.88;;;22.00;100.00
11041;BME280;5573;49.592;8.662;2022-07-23T00:33:59;99732.66;;;21.96;100.00
11041;BME280;5573;49.592;8.662;2022-07-23T00:36:48;99717.25;;;21.91;100.00
11041;BME280;5573;49.592;8.662;2022-07-23T00:39:36;99710.06;;;21.81;100.00
11041;BME280;5573;49.592;8.662;2022-07-23T00:42:24;99715.78;;;21.68;100.00
11041;BME280;5573;49.592;8.662;2022-07-23T00:45:12;99717.38;;;21.47;100.00
11041;BME280;5573;49.592;8.662;2022-07-23T00:48:01;99728.34;;;21.41;100.00
11041;BME280;5573;49.592;8.662;2022-07-23T00:50:50;99729.75;;;21.37;100.00
11041;BME280;5573;49.592;8.662;2022-07-23T00:53:39;99728.34;;;21.41;100.00
11041;BME280;5573;49.592;8.662;2022-07-23T00:56:28;99727.16;;;21.42;100.00
11041;BME280;5573;49.592;8.662;2022-07-23T00:59:17;99730.50;;;21.37;100.00
11041;BME280;5573;49.592;8.662;2022-07-23T01:02:05;99739.38;;;21.36;100.00
11041;BME280;5573;49.592;8.662;2022-07-23T01:04:53;99731.56;;;21.30;100.00
11041;BME280;5573;49.592;8.662;2022-07-23T01:07:43;99734.16;;;21.25;100.00
11041;BME280;5573;49.592;8.662;2022-07-23T01:10:32;99748.16;;;21.25;100.00
11041;BME280;5573;49.592;8.662;2022-07-23T01:13:20;99760.59;;;21.24;100.00
11041;BME280;5573;49.592;8.662;2022-07-23T01:16:09;99775.34;;;21.24;100.00
11041;BME280;5573;49.592;8.662;2022-07-23T01:18:57;99773.94;;;21.20;100.00
11041;BME280;5573;49.592;8.662;2022-07-23T01:21:49;99783.16;;;21.07;100.00
11041;BME280;5573;49.592;8.662;2022-07-23T01:24:38;99780.47;;;21.04;100.00
11041;BME280;5573;49.592;8.662;2022-07-23T01:27:26;99775.16;;;20.97;100.00
11041;BME280;5573;49.592;8.662;2022-07-23T01:30:20;99754.88;;;20.83;100.00
11041;BME280;5573;49.592;8.662;2022-07-23T01:33:08;99756.84;;;20.96;100.00
11041;BME280;5573;49.592;8.662;2022-07-23T01:35:56;99756.03;;;20.95;100.00
11041;BME280;5573;49.592;8.662;2022-07-23T01:38:45;99735.47;;;20.89;100.00
11041;BME280;5573;49.592;8.662;2022-07-23T01:41:36;99734.72;;;20.88;100.00
11041;BME280;5573;49.592;8.662;2022-07-23T01:44:25;99733.41;;;20.80;100.00
11041;BME280;5573;49.592;8.662;2022-07-23T01:47:13;99726.59;;;20.81;100.00
11041;BME280;5573;49.592;8.662;2022-07-23T01:50:01;99736.53;;;20.82;100.00
11041;BME280;5573;49.592;8.662;2022-07-23T01:53:13;99729.50;;;20.78;100.00
11041;BME280;5573;49.592;8.662;2022-07-23T01:56:01;99732.50;;;20.83;100.00
11041;BME280;5573;49.592;8.662;2022-07-23T01:58:51;99743.25;;;20.72;100.00
11041;BME280;5573;49.592;8.662;2022-07-23T02:01:40;99759.63;;;20.61;100.00
11041;BME280;5573;49.592;8.662;2022-07-23T02:04:29;99759.19;;;20.49;100.00
11041;BME280;5573;49.592;8.662;2022-07-23T02:07:17;99763.31;;;20.45;100.00
11041;BME280;5573;49.592;8.662;2022-07-23T02:10:06;99744.47;;;20.36;100.00
11041;BME280;5573;49.592;8.662;2022-07-23T02:12:57;99733.94;;;20.40;100.00
11041;BME280;5573;49.592;8.662;2022-07-23T02:15:46;99752.41;;;20.38;100.00
11041;BME280;5573;49.592;8.662;2022-07-23T02:18:35;99742.66;;;20.42;100.00
11041;BME280;5573;49.592;8.662;2022-07-23T02:21:23;99748.94;;;20.34;100.00
11041;BME280;5573;49.592;8.662;2022-07-23T02:24:12;99763.81;;;20.30;100.00
11041;BME280;5573;49.592;8.662;2022-07-23T02:27:02;99767.06;;;20.29;100.00
11041;BME280;5573;49.592;8.662;2022-07-23T02:29:52;99767.06;;;20.29;100.00
11041;BME280;5573;49.592;8.662;2022-07-23T02:32:41;99756.00;;;20.25;100.00
11041;BME280;5573;49.592;8.662;2022-07-23T02:35:30;99763.59;;;20.25;100.00
11041;BME280;5573;49.592;8.662;2022-07-23T02:38:21;99760.16;;;20.21;100.00
11041;BME280;5573;49.592;8.662;2022-07-23T02:41:09;99752.69;;;20.18;100.00
11041;BME280;5573;49.592;8.662;2022-07-23T02:43:57;99760.38;;;20.14;100.00
11041;BME280;5573;49.592;8.662;2022-07-23T02:46:46;99754.81;;;20.14;100.00
11041;BME280;5573;49.592;8.662;2022-07-23T02:49:36;99746.75;;;20.16;100.00
11041;BME280;5573;49.592;8.662;2022-07-23T02:52:25;99740.03;;;20.13;100.00
11041;BME280;5573;49.592;8.662;2022-07-23T02:55:14;99736.47;;;20.13;100.00
11041;BME280;5573;49.592;8.662;2022-07-23T02:58:02;99733.13;;;20.18;100.00
11041;BME280;5573;49.592;8.662;2022-07-23T03:00:50;99744.84;;;20.13;100.00
11041;BME280;5573;49.592;8.662;2022-07-23T03:03:38;99757.94;;;20.16;100.00
11041;BME280;5573;49.592;8.662;2022-07-23T03:06:28;99762.81;;;20.24;100.00
11041;BME280;5573;49.592;8.662;2022-07-23T03:09:16;99777.22;;;20.23;100.00
11041;BME280;5573;49.592;8.662;2022-07-23T03:12:05;99790.75;;;20.37;100.00
11041;BME280;5573;49.592;8.662;2022-07-23T03:14:59;99801.47;;;20.39;100.00
11041;BME280;5573;49.592;8.662;2022-07-23T03:17:47;99808.94;;;20.42;100.00
11041;BME280;5573;49.592;8.662;2022-07-23T03:20:35;99810.84;;;20.32;100.00
11041;BME280;5573;49.592;8.662;2022-07-23T03:23:25;99815.75;;;20.28;100.00
11041;BME280;5573;49.592;8.662;2022-07-23T03:26:13;99816.00;;;20.21;100.00
11041;BME280;5573;49.592;8.662;2022-07-23T03:29:02;99819.13;;;20.10;100.00
11041;BME280;5573;49.592;8.662;2022-07-23T03:31:51;99828.72;;;19.96;100.00
11041;BME280;5573;49.592;8.662;2022-07-23T03:34:39;99820.00;;;19.94;100.00
11041;BME280;5573;49.592;8.662;2022-07-23T03:37:28;99822.78;;;19.81;100.00
11041;BME280;5573;49.592;8.662;2022-07-23T03:40:19;99818.88;;;19.79;100.00
11041;BME280;5573;49.592;8.662;2022-07-23T03:43:08;99823.78;;;19.75;100.00
11041;BME280;5573;49.592;8.662;2022-07-23T03:45:56;99825.38;;;19.76;100.00
11041;BME280;5573;49.592;8.662;2022-07-23T03:48:44;99830.06;;;19.79;100.00
11041;BME280;5573;49.592;8.662;2022-07-23T03:51:33;99823.69;;;19.78;100.00
11041;BME280;5573;49.592;8.662;2022-07-23T03:54:22;99824.47;;;19.79;100.00
11041;BME280;5573;49.592;8.662;2022-07-23T03:57:11;99837.88;;;19.84;100.00
11041;BME280;5573;49.592;8.662;2022-07-23T04:00:01;99830.38;;;19.81;100.00
11041;BME280;5573;49.592;8.662;2022-07-23T04:02:59;99811.94;;;19.70;100.00
11041;BME280;5573;49.592;8.662;2022-07-23T04:05:48;99805.66;;;19.66;100.00
11041;BME280;5573;49.592;8.662;2022-07-23T04:08:36;99800.78;;;19.70;100.00
11041;BME280;5573;49.592;8.662;2022-07-23T04:11:24;99799.66;;;19.68;100.00
11041;BME280;5573;49.592;8.662;2022-07-23T04:14:14;99803.78;;;19.63;100.00
11041;BME280;5573;49.592;8.662;2022-07-23T04:17:02;99814.16;;;19.63;100.00
11041;BME280;5573;49.592;8.662;2022-07-23T04:19:51;99823.50;;;19.56;100.00
11041;BME280;5573;49.592;8.662;2022-07-23T04:22:42;99826.50;;;19.49;100.00
11041;BME280;5573;49.592;8.662;2022-07-23T04:25:31;99832.47;;;19.35;100.00
11041;BME280;5573;49.592;8.662;2022-07-23T04:28:20;99834.38;;;19.25;100.00
11041;BME280;5573;49.592;8.662;2022-07-23T04:31:09;99863.47;;;19.24;100.00
11041;BME280;5573;49.592;8.662;2022-07-23T04:33:59;99891.44;;;19.20;100.00
11041;BME280;5573;49.592;8.662;2022-07-23T04:36:47;99895.53;;;19.16;100.00
11041;BME280;5573;49.592;8.662;2022-07-23T04:39:35;99915.81;;;19.33;100.00
11041;BME280;5573;49.592;8.662;2022-07-23T04:42:23;99919.63;;;19.39;100.00
11041;BME280;5573;49.592;8.662;2022-07-23T04:45:11;99910.53;;;19.51;100.00
11041;BME280;5573;49.592;8.662;2022-07-23T04:48:03;99917.16;;;19.57;100.00
11041;BME280;5573;49.592;8.662;2022-07-23T04:50:51;99913.59;;;19.57;100.00
11041;BME280;5573;49.592;8.662;2022-07-23T04:53:45;99937.38;;;19.61;100.00
11041;BME280;5573;49.592;8.662;2022-07-23T04:56:33;99943.81;;;19.58;100.00
11041;BME280;5573;49.592;8.662;2022-07-23T04:59:21;99925.91;;;19.43;100.00
11041;BME280;5573;49.592;8.662;2022-07-23T05:02:15;99922.28;;;19.29;100.00
11041;BME280;5573;49.592;8.662;2022-07-23T05:05:06;99912.97;;;19.03;100.00
11041;BME280;5573;49.592;8.662;2022-07-23T05:07:54;99918.59;;;18.87;100.00
11041;BME280;5573;49.592;8.662;2022-07-23T05:10:42;99926.13;;;18.70;100.00
11041;BME280;5573;49.592;8.662;2022-07-23T05:13:30;99946.81;;;18.53;100.00
11041;BME280;5573;49.592;8.662;2022-07-23T05:16:19;99942.97;;;18.46;100.00
11041;BME280;5573;49.592;8.662;2022-07-23T05:19:07;99954.56;;;18.45;100.00
11041;BME280;5573;49.592;8.662;2022-07-23T05:21:57;99946.09;;;18.48;100.00
11041;BME280;5573;49.592;8.662;2022-07-23T05:24:45;99957.88;;;18.56;100.00
11041;BME280;5573;49.592;8.662;2022-07-23T05:27:33;99955.53;;;18.55;100.00
11041;BME280;5573;49.592;8.662;2022-07-23T05:30:22;99965.59;;;18.48;100.00
11041;BME280;5573;49.592;8.662;2022-07-23T05:33:16;99945.06;;;18.42;100.00
11041;BME280;5573;49.592;8.662;2022-07-23T05:36:05;99953.50;;;18.39;100.00
11041;BME280;5573;49.592;8.662;2022-07-23T05:39:01;99958.84;;;18.49;100.00
11041;BME280;5573;49.592;8.662;2022-07-23T05:41:54;99957.00;;;18.59;100.00
11041;BME280;5573;49.592;8.662;2022-07-23T05:44:43;99940.63;;;18.61;100.00
11041;BME280;5573;49.592;8.662;2022-07-23T05:47:39;99935.16;;;18.58;100.00
11041;BME280;5573;49.592;8.662;2022-07-23T05:50:29;99927.94;;;18.60;100.00
11041;BME280;5573;49.592;8.662;2022-07-23T05:53:24;99923.00;;;18.68;100.00
11041;BME280;5573;49.592;8.662;2022-07-23T05:56:46;99914.38;;;18.62;100.00
11041;BME280;5573;49.592;8.662;2022-07-23T05:59:35;99915.06;;;18.66;100.00
11041;BME280;5573;49.592;8.662;2022-07-23T06:02:23;99900.84;;;18.61;100.00
11041;BME280;5573;49.592;8.662;2022-07-23T06:05:11;99897.56;;;18.66;100.00
11041;BME280;5573;49.592;8.662;2022-07-23T06:07:59;99892.69;;;18.70;100.00
11041;BME280;5573;49.592;8.662;2022-07-23T06:10:49;99890.03;;;18.83;100.00
11041;BME280;5573;49.592;8.662;2022-07-23T06:13:38;99901.94;;;19.00;100.00
11041;BME280;5573;49.592;8.662;2022-07-23T06:16:26;99907.88;;;19.02;100.00
11041;BME280;5573;49.592;8.662;2022-07-23T06:19:15;99908.91;;;19.08;100.00
11041;BME280;5573;49.592;8.662;2022-07-23T06:22:05;99926.50;;;19.05;100.00
11041;BME280;5573;49.592;8.662;2022-07-23T06:24:53;99925.38;;;19.02;100.00
11041;BME280;5573;49.592;8.662;2022-07-23T06:27:41;99930.13;;;19.18;100.00
11041;BME280;5573;49.592;8.662;2022-07-23T06:30:32;99937.75;;;19.47;100.00
11041;BME280;5573;49.592;8.662;2022-07-23T06:33:22;99953.53;;;19.83;100.00
11041;BME280;5573;49.592;8.662;2022-07-23T06:36:10;99961.94;;;19.96;100.00
11041;BME280;5573;49.592;8.662;2022-07-23T06:39:00;99970.16;;;19.74;100.00
11041;BME280;5573;49.592;8.662;2022-07-23T06:41:50;99970.59;;;19.72;100.00
11041;BME280;5573;49.592;8.662;2022-07-23T06:44:55;99982.34;;;19.80;100.00
11041;BME280;5573;49.592;8.662;2022-07-23T06:47:45;99995.75;;;19.85;100.00
11041;BME280;5573;49.592;8.662;2022-07-23T06:50:33;100001.47;;;19.94;100.00
11041;BME280;5573;49.592;8.662;2022-07-23T06:53:21;100000.25;;;20.24;100.00
11041;BME280;5573;49.592;8.662;2022-07-23T06:56:09;99989.09;;;20.37;100.00
11041;BME280;5573;49.592;8.662;2022-07-23T06:58:59;99998.34;;;20.34;100.00
11041;BME280;5573;49.592;8.662;2022-07-23T07:01:48;100012.31;;;20.34;100.00
11041;BME280;5573;49.592;8.662;2022-07-23T07:04:37;100008.66;;;20.37;100.00
11041;BME280;5573;49.592;8.662;2022-07-23T07:07:25;99998.56;;;20.27;100.00
11041;BME280;5573;49.592;8.662;2022-07-23T07:10:14;99999.75;;;20.13;100.00
11041;BME280;5573;49.592;8.662;2022-07-23T07:13:03;100001.22;;;20.18;100.00
11041;BME280;5573;49.592;8.662;2022-07-23T07:15:51;99999.56;;;20.20;100.00
11041;BME280;5573;49.592;8.662;2022-07-23T07:18:39;100003.94;;;20.34;100.00
11041;BME280;5573;49.592;8.662;2022-07-23T07:21:28;99997.13;;;20.35;100.00
11041;BME280;5573;49.592;8.662;2022-07-23T07:24:16;99995.88;;;20.36;100.00
11041;BME280;5573;49.592;8.662;2022-07-23T07:27:04;99990.31;;;20.36;100.00
11041;BME280;5573;49.592;8.662;2022-07-23T07:29:52;100001.69;;;20.29;100.00
11041;BME280;5573;49.592;8.662;2022-07-23T07:32:42;99990.94;;;20.15;100.00
11041;BME280;5573;49.592;8.662;2022-07-23T07:35:45;100011.44;;;20.37;100.00
11041;BME280;5573;49.592;8.662;2022-07-23T07:38:35;100015.38;;;20.52;100.00
11041;BME280;5573;49.592;8.662;2022-07-23T07:41:23;100015.38;;;20.52;100.00
11041;BME280;5573;49.592;8.662;2022-07-23T07:44:12;99965.81;;;20.27;100.00
11041;BME280;5573;49.592;8.662;2022-07-23T07:47:00;100024.38;;;20.73;100.00
11041;BME280;5573;49.592;8.662;2022-07-23T07:49:49;100034.09;;;20.81;100.00
11041;BME280;5573;49.592;8.662;2022-07-23T07:52:37;100036.00;;;20.84;100.00
11041;BME280;5573;49.592;8.662;2022-07-23T07:55:26;100037.22;;;21.09;100.00
11041;BME280;5573;49.592;8.662;2022-07-23T07:58:16;100053.88;;;21.51;100.00
11041;BME280;5573;49.592;8.662;2022-07-23T08:01:04;100044.00;;;21.94;100.00
11041;BME280;5573;49.592;8.662;2022-07-23T08:03:53;100058.47;;;21.80;100.00
11041;BME280;5573;49.592;8.662;2022-07-23T08:06:41;100055.94;;;22.07;100.00
11041;BME280;5573;49.592;8.662;2022-07-23T08:09:30;100061.53;;;22.51;100.00
11041;BME280;5573;49.592;8.662;2022-07-23T08:12:19;100063.03;;;22.97;100.00
11041;BME280;5573;49.592;8.662;2022-07-23T08:15:08;100063.84;;;23.06;100.00
11041;BME280;5573;49.592;8.662;2022-07-23T08:18:00;100062.19;;;23.18;100.00
11041;BME280;5573;49.592;8.662;2022-07-23T08:20:48;100066.94;;;23.40;100.00
11041;BME280;5573;49.592;8.662;2022-07-23T08:23:36;100067.72;;;23.40;100.00
11041;BME280;5573;49.592;8.662;2022-07-23T08:26:24;100065.47;;;23.17;100.00
11041;BME280;5573;49.592;8.662;2022-07-23T08:29:14;100074.00;;;23.04;100.00
11041;BME280;5573;49.592;8.662;2022-07-23T08:32:02;100065.38;;;22.98;100.00
11041;BME280;5573;49.592;8.662;2022-07-23T08:35:10;100067.69;;;23.31;100.00
11041;BME280;5573;49.592;8.662;2022-07-23T08:37:59;100067.94;;;23.73;100.00
11041;BME280;5573;49.592;8.662;2022-07-23T08:40:50;100066.41;;;24.09;98.58
11041;BME280;5573;49.592;8.662;2022-07-23T08:43:40;100074.38;;;24.20;98.22
11041;BME280;5573;49.592;8.662;2022-07-23T08:46:31;100064.38;;;24.28;95.07
11041;BME280;5573;49.592;8.662;2022-07-23T08:49:20;100086.25;;;24.33;95.10
11041;BME280;5573;49.592;8.662;2022-07-23T08:52:10;100077.94;;;24.58;94.99
11041;BME280;5573;49.592;8.662;2022-07-23T08:54:59;100078.03;;;24.82;89.12
11041;BME280;5573;49.592;8.662;2022-07-23T08:57:50;100074.19;;;24.51;90.56
11041;BME280;5573;49.592;8.662;2022-07-23T09:00:39;100067.31;;;24.62;95.15
11041;BME280;5573;49.592;8.662;2022-07-23T09:03:30;100071.00;;;24.77;87.81
11041;BME280;5573;49.592;8.662;2022-07-23T09:06:19;100077.06;;;24.85;87.42
11041;BME280;5573;49.592;8.662;2022-07-23T09:09:17;100081.03;;;25.21;85.63
11041;BME280;5573;49.592;8.662;2022-07-23T09:12:07;100067.09;;;25.17;81.70
11041;BME280;5573;49.592;8.662;2022-07-23T09:15:03;100069.22;;;25.41;81.23
11041;BME280;5573;49.592;8.662;2022-07-23T09:17:51;100072.19;;;25.61;77.42
11041;BME280;5573;49.592;8.662;2022-07-23T09:20:41;100074.47;;;25.96;76.03
11041;BME280;5573;49.592;8.662;2022-07-23T09:23:37;100059.72;;;26.01;77.93
11041;BME280;5573;49.592;8.662;2022-07-23T09:26:34;100044.63;;;25.65;70.32
11041;BME280;5573;49.592;8.662;2022-07-23T09:29:24;100063.38;;;25.44;74.74
11041;BME280;5573;49.592;8.662;2022-07-23T09:32:13;100063.84;;;25.91;76.20
11041;BME280;5573;49.592;8.662;2022-07-23T09:35:01;100063.25;;;25.87;72.37
11041;BME280;5573;49.592;8.662;2022-07-23T09:38:02;100068.25;;;25.92;75.73
11041;BME280;5573;49.592;8.662;2022-07-23T09:41:05;100060.31;;;26.05;72.05
11041;BME280;5573;49.592;8.662;2022-07-23T09:43:55;100061.63;;;26.34;67.55
11041;BME280;5573;49.592;8.662;2022-07-23T09:46:45;100070.00;;;26.58;65.31
11041;BME280;5573;49.592;8.662;2022-07-23T09:49:33;100063.69;;;26.63;61.38
11041;BME280;5573;49.592;8.662;2022-07-23T09:52:26;100065.78;;;26.53;62.13
11041;BME280;5573;49.592;8.662;2022-07-23T09:55:31;100069.50;;;26.89;58.88
11041;BME280;5573;49.592;8.662;2022-07-23T09:58:22;100069.63;;;26.80;57.72
11041;BME280;5573;49.592;8.662;2022-07-23T10:01:13;100067.69;;;26.56;58.47
11041;BME280;5573;49.592;8.662;2022-07-23T10:04:02;100065.03;;;26.68;59.27
11041;BME280;5573;49.592;8.662;2022-07-23T10:07:11;100062.31;;;26.88;58.49
11041;BME280;5573;49.592;8.662;2022-07-23T10:10:22;100061.03;;;26.89;58.42
11041;BME280;5573;49.592;8.662;2022-07-23T10:13:49;100063.75;;;26.84;58.69
11041;BME280;5573;49.592;8.662;2022-07-23T10:16:41;100047.94;;;27.07;59.40
11041;BME280;5573;49.592;8.662;2022-07-23T10:19:31;100064.78;;;27.16;57.25
11041;BME280;5573;49.592;8.662;2022-07-23T10:22:22;100065.63;;;26.87;57.63
11041;BME280;5573;49.592;8.662;2022-07-23T10:25:18;100061.19;;;27.15;55.97
11041;BME280;5573;49.592;8.662;2022-07-23T10:31:31;100052.00;;;27.56;56.66
11041;BME280;5573;49.592;8.662;2022-07-23T10:34:50;100058.00;;;27.84;55.07
11041;BME280;5573;49.592;8.662;2022-07-23T10:37:42;100051.25;;;27.55;55.55
11041;BME280;5573;49.592;8.662;2022-07-23T10:40:31;100051.56;;;27.84;54.41
11041;BME280;5573;49.592;8.662;2022-07-23T10:43:21;100055.53;;;27.71;54.37
11041;BME280;5573;49.592;8.662;2022-07-23T10:46:23;100032.84;;;27.66;53.70
11041;BME280;5573;49.592;8.662;2022-07-23T10:49:27;100047.69;;;28.02;53.94
11041;BME280;5573;49.592;8.662;2022-07-23T10:52:21;100047.03;;;28.38;50.96
11041;BME280;5573;49.592;8.662;2022-07-23T10:55:38;100042.59;;;28.32;51.84
11041;BME280;5573;49.592;8.662;2022-07-23T10:58:47;100043.06;;;28.51;53.16
11041;BME280;5573;49.592;8.662;2022-07-23T11:01:38;100045.66;;;28.54;49.88
11041;BME280;5573;49.592;8.662;2022-07-23T11:04:47;100047.03;;;28.65;50.41
11041;BME280;5573;49.592;8.662;2022-07-23T11:07:39;100034.25;;;28.75;49.15
11041;BME280;5573;49.592;8.662;2022-07-23T11:10:48;100043.81;;;29.15;49.44
11041;BME280;5573;49.592;8.662;2022-07-23T11:13:41;100056.44;;;29.14;49.48
11041;BME280;5573;49.592;8.662;2022-07-23T11:16:46;100050.56;;;29.23;48.52
11041;BME280;5573;49.592;8.662;2022-07-23T11:22:57;100041.00;;;28.83;49.90
11041;BME280;5573;49.592;8.662;2022-07-23T11:25:45;100033.47;;;28.74;50.06
11041;BME280;5573;49.592;8.662;2022-07-23T11:28:34;100037.25;;;28.97;50.67
11041;BME280;5573;49.592;8.662;2022-07-23T11:31:22;100044.59;;;28.84;49.96
11041;BME280;5573;49.592;8.662;2022-07-23T11:34:31;100038.75;;;28.35;50.60
11041;BME280;5573;49.592;8.662;2022-07-23T11:37:40;100039.22;;;28.28;51.27
11041;BME280;5573;49.592;8.662;2022-07-23T11:40:28;100042.06;;;28.54;49.85
11041;BME280;5573;49.592;8.662;2022-07-23T11:43:18;100036.09;;;28.78;49.94
11041;BME280;5573;49.592;8.662;2022-07-23T11:46:09;100019.59;;;28.76;48.77
11041;BME280;5573;49.592;8.662;2022-07-23T11:49:02;100030.69;;;28.80;50.49
11041;BME280;5573;49.592;8.662;2022-07-23T11:52:10;100037.53;;;28.99;49.17
11041;BME280;5573;49.592;8.662;2022-07-23T11:55:00;100029.44;;;29.18;47.82
11041;BME280;5573;49.592;8.662;2022-07-23T11:57:51;100032.13;;;29.45;48.18
11041;BME280;5573;49.592;8.662;2022-07-23T12:00:41;100024.34;;;29.88;45.45
11041;BME280;5573;49.592;8.662;2022-07-23T12:03:29;100018.66;;;29.88;48.12
11041;BME280;5573;49.592;8.662;2022-07-23T12:06:17;100003.69;;;29.82;46.66
11041;BME280;5573;49.592;8.662;2022-07-23T12:09:10;100000.63;;;29.26;46.92
11041;BME280;5573;49.592;8.662;2022-07-23T12:11:58;100013.63;;;29.06;47.15
11041;BME280;5573;49.592;8.662;2022-07-23T12:14:48;100012.28;;;28.64;48.40
11041;BME280;5573;49.592;8.662;2022-07-23T12:17:38;100012.13;;;28.47;48.27
11041;BME280;5573;49.592;8.662;2022-07-23T12:20:28;100020.19;;;28.02;48.25
11041;BME280;5573;49.592;8.662;2022-07-23T12:23:19;99993.63;;;27.94;49.59
11041;BME280;5573;49.592;8.662;2022-07-23T12:26:09;100004.00;;;28.03;49.65
11041;BME280;5573;49.592;8.662;2022-07-23T12:28:58;100006.38;;;28.10;49.99
11041;BME280;5573;49.592;8.662;2022-07-23T12:31:46;100013.00;;;28.27;50.07
11041;BME280;5573;49.592;8.662;2022-07-23T12:34:35;100014.88;;;28.36;48.04
11041;BME280;5573;49.592;8.662;2022-07-23T12:37:29;100019.19;;;28.57;48.12
11041;BME280;5573;49.592;8.662;2022-07-23T12:40:24;100008.72;;;28.69;48.66
11041;BME280;5573;49.592;8.662;2022-07-23T12:43:22;100011.28;;;29.05;47.34
11041;BME280;5573;49.592;8.662;2022-07-23T12:46:12;100009.88;;;29.26;46.46
11041;BME280;5573;49.592;8.662;2022-07-23T12:49:01;100020.63;;;29.65;45.96
11041;BME280;5573;49.592;8.662;2022-07-23T12:51:50;100009.25;;;29.59;45.98
11041;BME280;5573;49.592;8.662;2022-07-23T12:54:38;100016.34;;;29.32;46.91
11041;BME280;5573;49.592;8.662;2022-07-23T12:57:46;100011.81;;;29.09;47.50
11041;BME280;5573;49.592;8.662;2022-07-23T13:00:56;100013.75;;;29.23;46.92
11041;BME280;5573;49.592;8.662;2022-07-23T13:03:55;100016.63;;;29.34;46.18
11041;BME280;5573;49.592;8.662;2022-07-23T13:06:46;100013.53;;;29.32;46.01
11041;BME280;5573;49.592;8.662;2022-07-23T13:09:35;100007.97;;;29.55;45.97
11041;BME280;5573;49.592;8.662;2022-07-23T13:12:29;99974.75;;;29.61;46.23
11041;BME280;5573;49.592;8.662;2022-07-23T13:15:17;100004.88;;;29.58;46.78
11041;BME280;5573;49.592;8.662;2022-07-23T13:18:09;99996.47;;;29.81;45.51
11041;BME280;5573;49.592;8.662;2022-07-23T13:20:58;99995.09;;;29.54;44.50
11041;BME280;5573;49.592;8.662;2022-07-23T13:23:46;100003.13;;;29.67;45.45
11041;BME280;5573;49.592;8.662;2022-07-23T13:26:34;100006.50;;;29.76;44.72
11041;BME280;5573;49.592;8.662;2022-07-23T13:29:23;100009.78;;;29.58;45.15
11041;BME280;5573;49.592;8.662;2022-07-23T13:32:12;100003.41;;;29.14;45.57
11041;BME280;5573;49.592;8.662;2022-07-23T13:35:01;100004.31;;;29.00;45.36
11041;BME280;5573;49.592;8.662;2022-07-23T13:37:49;100009.16;;;28.94;45.95
11041;BME280;5573;49.592;8.662;2022-07-23T13:40:39;100009.41;;;29.33;46.33
11041;BME280;5573;49.592;8.662;2022-07-23T13:43:29;100006.81;;;29.90;44.68
11041;BME280;5573;49.592;8.662;2022-07-23T13:46:22;100012.78;;;30.03;43.03
11041;BME280;5573;49.592;8.662;2022-07-23T13:49:10;100010.72;;;30.09;43.36
11041;BME280;5573;49.592;8.662;2022-07-23T13:52:01;100011.97;;;29.86;44.08
11041;BME280;5573;49.592;8.662;2022-07-23T13:54:51;100010.75;;;29.44;45.60
11041;BME280;5573;49.592;8.662;2022-07-23T13:57:40;100005.75;;;29.87;43.67
11041;BME280;5573;49.592;8.662;2022-07-23T14:00:30;100004.84;;;30.30;42.03
11041;BME280;5573;49.592;8.662;2022-07-23T14:03:38;99992.72;;;30.35;41.52
11041;BME280;5573;49.592;8.662;2022-07-23T14:06:27;100000.97;;;30.67;41.53
11041;BME280;5573;49.592;8.662;2022-07-23T14:09:20;100005.84;;;30.77;41.66
11041;BME280;5573;49.592;8.662;2022-07-23T14:12:11;99993.22;;;30.95;40.84
11041;BME280;5573;49.592;8.662;2022-07-23T14:15:04;99993.94;;;31.07;39.36
11041;BME280;5573;49.592;8.662;2022-07-23T14:17:58;99997.34;;;30.83;41.09
11041;BME280;5573;49.592;8.662;2022-07-23T14:20:46;99993.94;;;31.07;39.70
11041;BME280;5573;49.592;8.662;2022-07-23T14:23:34;99994.25;;;30.92;40.64
11041;BME280;5573;49.592;8.662;2022-07-23T14:26:24;99990.13;;;30.26;40.81
11041;BME280;5573;49.592;8.662;2022-07-23T14:29:12;99987.53;;;30.22;41.43
11041;BME280;5573;49.592;8.662;2022-07-23T14:32:01;99984.91;;;29.79;42.89
11041;BME280;5573;49.592;8.662;2022-07-23T14:34:49;99994.59;;;29.61;43.15
11041;BME280;5573;49.592;8.662;2022-07-23T14:37:39;99994.81;;;29.52;43.03
11041;BME280;5573;49.592;8.662;2022-07-23T14:40:29;99979.50;;;30.04;42.07
11041;BME280;5573;49.592;8.662;2022-07-23T14:43:18;99983.66;;;30.19;41.66
11041;BME280;5573;49.592;8.662;2022-07-23T14:46:06;99984.19;;;30.63;39.44
11041;BME280;5573;49.592;8.662;2022-07-23T14:48:54;99985.00;;;30.47;39.52
11041;BME280;5573;49.592;8.662;2022-07-23T14:51:43;99981.06;;;30.10;41.42
11041;BME280;5573;49.592;8.662;2022-07-23T14:54:32;99984.63;;;29.77;40.77
11041;BME280;5573;49.592;8.662;2022-07-23T14:57:20;99975.88;;;29.86;41.53
11041;BME280;5573;49.592;8.662;2022-07-23T15:00:14;99973.34;;;30.11;39.98
11041;BME280;5573;49.592;8.662;2022-07-23T15:03:03;99965.59;;;30.23;41.18
11041;BME280;5573;49.592;8.662;2022-07-23T15:05:51;99977.44;;;30.04;40.24
11041;BME280;5573;49.592;8.662;2022-07-23T15:08:39;99971.41;;;29.68;41.92
11041;BME280;5573;49.592;8.662;2022-07-23T15:11:28;99977.25;;;29.42;42.49